createdAt,value
2018-03-25T00:00:33.443Z,2.05
2018-03-25T00:03:00.953Z,2.07
2018-03-25T00:05:28.394Z,2.05
2018-03-25T00:07:55.984Z,2.10
2018-03-25T00:10:23.449Z,2.16
2018-03-25T00:12:50.947Z,2.19
2018-03-25T00:15:18.398Z,2.15
2018-03-25T00:17:45.856Z,2.13
2018-03-25T00:20:13.351Z,2.08
2018-03-25T00:22:40.828Z,2.11
2018-03-25T00:25:08.322Z,2.17
2018-03-25T00:27:35.791Z,2.09
2018-03-25T00:30:03.382Z,2.07
2018-03-25T00:32:30.844Z,2.02
2018-03-25T00:34:58.315Z,2.01
2018-03-25T00:37:26.895Z,2.03
2018-03-25T00:39:54.359Z,1.97
2018-03-25T00:42:21.814Z,1.96
2018-03-25T00:44:49.252Z,1.90
2018-03-25T00:47:16.717Z,1.85
2018-03-25T00:49:44.161Z,1.85
2018-03-25T00:52:11.610Z,1.87
2018-03-25T00:54:39.050Z,1.89
2018-03-25T00:57:06.523Z,1.82
2018-03-25T00:59:34.006Z,1.74
2018-03-25T01:02:01.486Z,1.77
2018-03-25T01:04:28.955Z,1.71
2018-03-25T01:06:56.400Z,1.69
2018-03-25T01:09:24.703Z,1.66
2018-03-25T01:11:52.189Z,1.63
2018-03-25T01:14:19.663Z,1.57
2018-03-25T01:16:47.089Z,1.57
2018-03-25T01:19:14.531Z,1.54
2018-03-25T01:21:41.977Z,1.51
2018-03-25T01:24:09.426Z,1.53
2018-03-25T01:26:36.874Z,1.50
2018-03-25T01:29:04.334Z,1.44
2018-03-25T01:31:31.890Z,1.42
2018-03-25T01:33:59.274Z,1.42
2018-03-25T01:36:26.731Z,1.38
2018-03-25T01:38:54.166Z,1.39
2018-03-25T01:41:21.600Z,1.39
2018-03-25T01:43:49.062Z,1.36
2018-03-25T01:46:16.499Z,1.32
2018-03-25T01:48:43.954Z,1.30
2018-03-25T01:51:11.390Z,1.30
2018-03-25T01:53:38.841Z,1.25
2018-03-25T01:56:06.278Z,1.18
2018-03-25T01:58:33.725Z,1.13
2018-03-25T02:01:01.159Z,1.11
2018-03-25T02:03:28.595Z,1.09
2018-03-25T02:05:56.105Z,1.06
2018-03-25T02:08:23.553Z,1.08
2018-03-25T02:10:50.998Z,1.04
2018-03-25T02:13:18.442Z,1.01
2018-03-25T02:15:46.015Z,0.99
2018-03-25T02:18:13.463Z,0.96
2018-03-25T02:20:40.919Z,0.99
2018-03-25T02:23:08.371Z,0.92
2018-03-25T02:25:35.805Z,0.90
2018-03-25T02:28:03.242Z,0.87
2018-03-25T02:30:30.707Z,0.85
2018-03-25T02:32:58.158Z,0.81
2018-03-25T02:35:25.659Z,0.78
2018-03-25T02:37:53.774Z,0.76
2018-03-25T02:40:21.239Z,0.74
2018-03-25T02:42:48.684Z,0.77
2018-03-25T02:45:16.123Z,0.77
2018-03-25T02:47:43.578Z,0.78
2018-03-25T02:50:11.066Z,0.79
2018-03-25T02:52:38.519Z,0.81
2018-03-25T02:55:05.966Z,0.78
2018-03-25T02:57:33.417Z,0.74
2018-03-25T03:00:00.859Z,0.70
2018-03-25T03:02:28.329Z,0.67
2018-03-25T03:04:55.796Z,0.65
2018-03-25T03:07:23.287Z,0.68
2018-03-25T03:09:50.726Z,0.66
2018-03-25T03:12:18.173Z,0.65
2018-03-25T03:14:45.617Z,0.65
2018-03-25T03:17:13.069Z,0.59
2018-03-25T03:19:40.519Z,0.54
2018-03-25T03:22:07.964Z,0.57
2018-03-25T03:24:35.420Z,0.52
2018-03-25T03:27:02.862Z,0.54
2018-03-25T03:29:30.327Z,0.61
2018-03-25T03:31:57.763Z,0.65
2018-03-25T03:34:25.238Z,0.62
2018-03-25T03:36:52.696Z,0.62
2018-03-25T03:39:20.139Z,0.58
2018-03-25T03:41:47.582Z,0.51
2018-03-25T03:44:15.044Z,0.45
2018-03-25T03:46:42.516Z,0.41
2018-03-25T03:49:09.957Z,0.38
2018-03-25T03:51:37.401Z,0.37
2018-03-25T03:54:04.841Z,0.34
2018-03-25T03:56:32.295Z,0.31
2018-03-25T03:58:59.756Z,0.26
2018-03-25T04:01:27.197Z,0.24
2018-03-25T04:03:54.683Z,0.22
2018-03-25T04:06:22.112Z,0.21
2018-03-25T04:08:49.564Z,0.30
2018-03-25T04:11:17.051Z,0.38
2018-03-25T04:13:44.512Z,0.41
2018-03-25T04:16:11.941Z,0.43
2018-03-25T04:18:39.391Z,0.37
2018-03-25T04:21:06.843Z,0.32
2018-03-25T04:23:34.296Z,0.30
2018-03-25T04:26:01.763Z,0.23
2018-03-25T04:28:29.225Z,0.17
2018-03-25T04:30:56.663Z,0.13
2018-03-25T04:33:24.100Z,0.13
2018-03-25T04:35:51.558Z,0.13
2018-03-25T04:38:19.035Z,0.09
2018-03-25T04:40:46.486Z,0.14
2018-03-25T04:43:13.967Z,0.12
2018-03-25T04:45:41.435Z,0.06
2018-03-25T04:48:08.886Z,0.04
2018-03-25T04:50:36.329Z,0.05
2018-03-25T04:53:03.785Z,0.12
2018-03-25T04:55:31.234Z,0.12
2018-03-25T04:57:58.684Z,0.08
2018-03-25T05:00:26.146Z,0.08
2018-03-25T05:02:53.629Z,0.14
2018-03-25T05:05:21.074Z,0.14
2018-03-25T05:07:48.532Z,0.15
2018-03-25T05:10:16.001Z,0.18
2018-03-25T05:12:43.448Z,0.18
2018-03-25T05:15:10.892Z,0.15
2018-03-25T05:17:38.337Z,0.14
2018-03-25T05:20:05.794Z,0.18
2018-03-25T05:22:33.231Z,0.19
2018-03-25T05:25:00.718Z,0.26
2018-03-25T05:27:28.151Z,0.25
2018-03-25T05:29:55.894Z,0.28
2018-03-25T05:32:23.397Z,0.32
2018-03-25T05:34:50.847Z,0.32
2018-03-25T05:37:18.306Z,0.37
2018-03-25T05:39:45.742Z,0.38
2018-03-25T05:42:13.208Z,0.43
2018-03-25T05:44:40.676Z,0.49
2018-03-25T05:47:08.115Z,0.59
2018-03-25T05:49:35.561Z,0.69
2018-03-25T05:52:03.022Z,0.75
2018-03-25T05:54:30.491Z,0.78
2018-03-25T05:56:57.957Z,0.88
2018-03-25T05:59:25.425Z,0.97
2018-03-25T06:01:53.306Z,1.05
2018-03-25T06:04:20.881Z,1.08
2018-03-25T06:06:48.318Z,1.22
2018-03-25T06:09:15.847Z,1.41
2018-03-25T06:11:43.299Z,1.46
2018-03-25T06:14:10.733Z,1.54
2018-03-25T06:16:38.208Z,1.68
2018-03-25T06:19:05.649Z,1.81
2018-03-25T06:21:33.293Z,1.86
2018-03-25T06:24:00.762Z,1.89
2018-03-25T06:26:28.211Z,1.98
2018-03-25T06:28:55.860Z,2.11
2018-03-25T06:31:24.026Z,2.20
2018-03-25T06:33:51.472Z,2.30
2018-03-25T06:36:18.922Z,2.39
2018-03-25T06:38:46.366Z,2.47
2018-03-25T06:41:13.818Z,2.59
2018-03-25T06:43:41.261Z,2.64
2018-03-25T06:46:08.789Z,2.74
2018-03-25T06:48:36.317Z,2.86
2018-03-25T06:51:03.771Z,3.00
2018-03-25T06:53:31.290Z,3.13
2018-03-25T06:55:58.897Z,3.40
2018-03-25T06:58:26.458Z,3.51
2018-03-25T07:00:53.894Z,3.58
2018-03-25T07:03:21.350Z,3.87
2018-03-25T07:05:48.802Z,4.00
2018-03-25T07:08:16.255Z,4.21
2018-03-25T07:10:43.704Z,4.44
2018-03-25T07:13:11.171Z,4.37
2018-03-25T07:15:38.624Z,4.52
2018-03-25T07:18:06.077Z,4.58
2018-03-25T07:20:33.769Z,4.92
2018-03-25T07:23:01.436Z,5.25
2018-03-25T07:25:28.873Z,5.31
2018-03-25T07:27:56.341Z,5.43
2018-03-25T07:30:23.787Z,5.62
2018-03-25T07:32:51.219Z,5.60
2018-03-25T07:35:18.737Z,5.78
2018-03-25T07:37:46.239Z,5.96
2018-03-25T07:40:13.634Z,6.13
2018-03-25T07:42:41.070Z,6.10
2018-03-25T07:45:08.557Z,6.29
2018-03-25T07:47:36.008Z,6.46
2018-03-25T07:50:03.480Z,6.61
2018-03-25T07:52:30.950Z,6.63
2018-03-25T07:54:58.766Z,6.92
2018-03-25T07:57:26.221Z,7.11
2018-03-25T07:59:53.682Z,7.14
2018-03-25T08:02:21.139Z,7.34
2018-03-25T08:04:48.591Z,7.29
2018-03-25T08:07:16.078Z,7.56
2018-03-25T08:09:43.525Z,7.58
2018-03-25T08:12:11.018Z,7.65
2018-03-25T08:14:38.476Z,7.77
2018-03-25T08:17:06.737Z,7.81
2018-03-25T08:19:34.202Z,7.75
2018-03-25T08:22:01.743Z,7.97
2018-03-25T08:24:29.212Z,7.91
2018-03-25T08:26:56.727Z,8.10
2018-03-25T08:29:24.186Z,8.42
2018-03-25T08:31:51.642Z,8.56
2018-03-25T08:34:19.134Z,8.66
2018-03-25T08:36:46.585Z,8.95
2018-03-25T08:39:14.046Z,9.05
2018-03-25T08:41:41.586Z,9.15
2018-03-25T08:44:09.058Z,9.20
2018-03-25T08:46:36.795Z,9.16
2018-03-25T08:49:04.350Z,9.24
2018-03-25T08:51:31.813Z,9.40
2018-03-25T08:53:59.343Z,9.91
2018-03-25T08:56:26.819Z,9.63
2018-03-25T08:58:54.259Z,9.95
2018-03-25T09:01:21.696Z,10.21
2018-03-25T09:03:49.168Z,10.41
2018-03-25T09:06:16.616Z,10.41
2018-03-25T09:08:44.064Z,10.32
2018-03-25T09:11:11.642Z,10.49
2018-03-25T09:13:39.180Z,10.54
2018-03-25T09:16:06.763Z,10.75
2018-03-25T09:18:34.223Z,10.95
2018-03-25T09:21:01.702Z,11.15
2018-03-25T09:23:29.238Z,11.14
2018-03-25T09:25:56.693Z,10.89
2018-03-25T09:28:24.161Z,11.35
2018-03-25T09:30:51.607Z,11.43
2018-03-25T09:33:19.046Z,11.21
2018-03-25T09:35:46.507Z,11.23
2018-03-25T09:38:13.942Z,11.36
2018-03-25T09:40:41.392Z,11.41
2018-03-25T09:43:08.850Z,11.75
2018-03-25T09:45:36.310Z,11.66
2018-03-25T09:48:03.748Z,11.61
2018-03-25T09:50:31.253Z,12.01
2018-03-25T09:52:58.711Z,11.99
2018-03-25T09:55:26.406Z,11.91
2018-03-25T09:57:53.846Z,12.30
2018-03-25T10:00:26.840Z,12.49
2018-03-25T10:02:59.166Z,12.39
2018-03-25T10:05:26.642Z,12.23
2018-03-25T10:07:54.101Z,12.40
2018-03-25T10:10:21.563Z,12.54
2018-03-25T10:12:49.020Z,12.42
2018-03-25T10:15:16.474Z,12.59
2018-03-25T10:17:43.927Z,12.88
2018-03-25T10:20:11.416Z,12.68
2018-03-25T10:22:38.884Z,12.87
2018-03-25T10:25:06.372Z,12.37
2018-03-25T10:27:33.858Z,12.43
2018-03-25T10:30:01.313Z,12.58
2018-03-25T10:32:28.756Z,12.87
2018-03-25T10:34:57.062Z,12.80
2018-03-25T10:37:25.656Z,12.75
2018-03-25T10:39:53.225Z,12.87
2018-03-25T10:42:20.666Z,13.05
2018-03-25T10:44:48.105Z,13.43
2018-03-25T10:47:15.571Z,13.32
2018-03-25T10:49:43.032Z,13.47
2018-03-25T10:52:10.473Z,13.59
2018-03-25T10:54:37.935Z,13.71
2018-03-25T10:57:05.402Z,13.94
2018-03-25T10:59:32.869Z,14.07
2018-03-25T11:02:00.338Z,13.90
2018-03-25T11:04:27.903Z,14.00
2018-03-25T11:06:55.338Z,14.27
2018-03-25T11:09:22.796Z,14.30
2018-03-25T11:11:50.257Z,14.40
2018-03-25T11:14:17.716Z,14.13
2018-03-25T11:16:45.175Z,14.20
2018-03-25T11:19:12.622Z,13.86
2018-03-25T11:21:40.076Z,14.33
2018-03-25T11:24:07.527Z,14.66
2018-03-25T11:26:34.990Z,14.80
2018-03-25T11:29:02.593Z,14.69
2018-03-25T11:31:30.054Z,14.84
2018-03-25T11:33:57.541Z,14.77
2018-03-25T11:36:25.258Z,14.13
2018-03-25T11:38:52.711Z,15.13
2018-03-25T11:41:20.191Z,15.38
2018-03-25T11:43:47.696Z,15.86
2018-03-25T11:46:15.169Z,15.83
2018-03-25T11:48:42.790Z,15.74
2018-03-25T11:51:10.274Z,16.38
2018-03-25T11:53:37.716Z,17.36
2018-03-25T11:56:05.574Z,17.45
2018-03-25T11:58:33.076Z,17.81
2018-03-25T12:01:00.547Z,19.02
2018-03-25T12:03:28.034Z,19.93
2018-03-25T12:05:55.484Z,20.29
2018-03-25T12:08:22.963Z,21.03
2018-03-25T12:10:50.437Z,21.73
2018-03-25T12:13:17.988Z,21.74
2018-03-25T12:15:45.437Z,23.28
2018-03-25T12:18:12.930Z,24.44
2018-03-25T12:20:40.419Z,24.87
2018-03-25T12:23:07.874Z,25.56
2018-03-25T12:25:35.335Z,25.94
2018-03-25T12:28:02.796Z,26.14
2018-03-25T12:30:31.152Z,26.10
2018-03-25T12:33:00.467Z,27.16
2018-03-25T12:35:30.432Z,28.11
2018-03-25T12:37:57.887Z,26.32
2018-03-25T12:40:25.330Z,26.71
2018-03-25T12:42:52.785Z,26.70
2018-03-25T12:45:20.230Z,27.57
2018-03-25T12:47:47.722Z,28.29
2018-03-25T12:50:15.165Z,29.44
2018-03-25T12:52:42.711Z,29.27
2018-03-25T12:55:10.448Z,29.82
2018-03-25T12:57:38.044Z,31.32
2018-03-25T13:00:05.513Z,28.75
2018-03-25T13:02:32.994Z,31.02
2018-03-25T13:05:00.468Z,33.41
2018-03-25T13:07:27.918Z,32.30
2018-03-25T13:09:55.373Z,30.85
2018-03-25T13:12:22.838Z,31.68
2018-03-25T13:14:50.300Z,31.61
2018-03-25T13:17:17.765Z,32.66
2018-03-25T13:19:45.215Z,31.30
2018-03-25T13:22:12.673Z,31.15
2018-03-25T13:24:40.156Z,31.39
2018-03-25T13:27:10.583Z,31.41
2018-03-25T13:29:38.064Z,33.02
2018-03-25T13:32:05.538Z,33.27
2018-03-25T13:34:33.013Z,32.86
2018-03-25T13:37:00.481Z,33.07
2018-03-25T13:39:27.934Z,31.67
2018-03-25T13:41:55.381Z,31.92
2018-03-25T13:44:22.847Z,31.92
2018-03-25T13:46:50.297Z,31.38
2018-03-25T13:49:17.743Z,33.25
2018-03-25T13:51:45.210Z,32.61
2018-03-25T13:54:12.648Z,33.22
2018-03-25T13:56:40.118Z,34.39
2018-03-25T13:59:07.563Z,34.17
2018-03-25T14:01:35.042Z,31.56
2018-03-25T14:04:02.494Z,30.52
2018-03-25T14:06:29.987Z,32.47
2018-03-25T14:08:57.418Z,30.13
2018-03-25T14:11:26.075Z,30.26
2018-03-25T14:13:53.524Z,29.45
2018-03-25T14:16:20.972Z,30.97
2018-03-25T14:18:48.435Z,29.77
2018-03-25T14:21:16.174Z,28.35
2018-03-25T14:23:43.633Z,29.41
2018-03-25T14:26:15.694Z,27.66
2018-03-25T14:28:43.214Z,26.98
2018-03-25T14:31:10.695Z,28.04
2018-03-25T14:33:38.152Z,27.94
2018-03-25T14:36:05.629Z,27.01
2018-03-25T14:38:33.111Z,28.45
2018-03-25T14:41:00.657Z,29.43
2018-03-25T14:43:28.114Z,29.63
2018-03-25T14:45:55.556Z,28.15
2018-03-25T14:48:23.010Z,27.97
2018-03-25T14:50:50.461Z,28.72
2018-03-25T14:53:17.927Z,29.24
2018-03-25T14:55:45.358Z,30.15
2018-03-25T14:58:12.808Z,29.82
2018-03-25T15:00:40.334Z,30.60
2018-03-25T15:03:07.791Z,28.52
2018-03-25T15:05:35.269Z,27.54
2018-03-25T15:08:02.751Z,27.66
2018-03-25T15:10:30.190Z,26.77
2018-03-25T15:12:57.643Z,26.61
2018-03-25T15:15:25.142Z,24.80
2018-03-25T15:17:53.060Z,25.27
2018-03-25T15:20:20.501Z,24.30
2018-03-25T15:22:47.960Z,24.58
2018-03-25T15:25:17.471Z,24.72
2018-03-25T15:27:56.631Z,23.91
2018-03-25T15:30:25.175Z,24.38
2018-03-25T15:32:56.429Z,24.51
2018-03-25T15:35:25.530Z,23.63
2018-03-25T15:37:54.177Z,23.73
2018-03-25T15:40:24.367Z,23.59
2018-03-25T15:42:54.013Z,23.70
2018-03-25T15:45:24.312Z,23.34
2018-03-25T15:47:53.316Z,22.57
2018-03-25T15:50:22.501Z,21.99
2018-03-25T15:52:51.119Z,22.03
2018-03-25T15:55:19.168Z,21.01
2018-03-25T15:57:47.555Z,21.42
2018-03-25T16:00:15.883Z,21.48
2018-03-25T16:02:43.869Z,20.89
2018-03-25T16:05:12.415Z,20.71
2018-03-25T16:07:41.364Z,19.58
2018-03-25T16:10:23.126Z,19.75
2018-03-25T16:12:51.867Z,18.41
2018-03-25T16:15:22.600Z,18.07
2018-03-25T16:17:53.077Z,17.48
2018-03-25T16:20:21.768Z,18.04
2018-03-25T16:22:51.072Z,18.24
2018-03-25T16:25:20.121Z,18.78
2018-03-25T16:27:48.016Z,18.50
2018-03-25T16:30:15.613Z,18.37
2018-03-25T16:32:43.324Z,18.55
2018-03-25T16:35:15.514Z,19.13
2018-03-25T16:37:43.263Z,19.25
2018-03-25T16:40:10.967Z,19.03
2018-03-25T16:42:38.820Z,18.46
2018-03-25T16:45:06.559Z,18.08
2018-03-25T16:47:34.845Z,18.04
2018-03-25T16:50:09.542Z,17.38
2018-03-25T16:52:37.305Z,17.33
2018-03-25T16:55:05.229Z,16.78
2018-03-25T16:57:32.898Z,16.25
2018-03-25T17:00:00.450Z,15.29
2018-03-25T17:02:28.830Z,14.59
2018-03-25T17:04:56.382Z,14.49
2018-03-25T17:07:24.158Z,13.96
2018-03-25T17:09:53.427Z,13.60
2018-03-25T17:12:21.001Z,13.29
2018-03-25T17:14:48.453Z,12.94
2018-03-25T17:17:16.434Z,12.78
2018-03-25T17:19:44.290Z,12.58
2018-03-25T17:22:13.096Z,12.33
2018-03-25T17:24:42.279Z,12.02
2018-03-25T17:27:10.978Z,11.82
2018-03-25T17:29:39.971Z,11.64
2018-03-25T17:32:08.861Z,11.43
2018-03-25T17:34:37.432Z,11.24
2018-03-25T17:37:05.192Z,11.02
2018-03-25T17:39:32.836Z,10.83
2018-03-25T17:42:00.614Z,10.71
2018-03-25T17:44:28.179Z,10.56
2018-03-25T17:46:55.853Z,10.39
2018-03-25T17:49:23.560Z,10.26
2018-03-25T17:51:51.135Z,10.16
2018-03-25T17:54:18.762Z,10.12
2018-03-25T17:56:46.518Z,10.02
2018-03-25T17:59:22.511Z,9.89
2018-03-25T18:01:53.165Z,9.72
2018-03-25T18:04:20.625Z,9.63
2018-03-25T18:06:48.321Z,9.52
2018-03-25T18:09:15.776Z,9.47
2018-03-25T18:11:43.222Z,9.44
2018-03-25T18:14:10.733Z,9.45
2018-03-25T18:16:38.184Z,9.41
2018-03-25T18:19:05.746Z,9.36
2018-03-25T18:21:33.197Z,9.26
2018-03-25T18:24:00.650Z,9.22
2018-03-25T18:26:28.133Z,9.19
2018-03-25T18:28:55.567Z,9.12
2018-03-25T18:31:23.007Z,9.10
2018-03-25T18:33:50.454Z,9.18
2018-03-25T18:36:18.964Z,9.28
2018-03-25T18:38:46.482Z,9.43
2018-03-25T18:41:13.919Z,9.51
2018-03-25T18:43:41.589Z,9.55
2018-03-25T18:46:09.044Z,9.48
2018-03-25T18:48:36.486Z,9.43
2018-03-25T18:51:03.916Z,9.29
2018-03-25T18:53:31.406Z,9.26
2018-03-25T18:56:00.357Z,9.25
2018-03-25T18:58:27.838Z,9.31
2018-03-25T19:00:55.302Z,9.25
2018-03-25T19:03:22.731Z,9.20
2018-03-25T19:05:50.190Z,9.20
2018-03-25T19:08:30.094Z,9.12
2018-03-25T19:11:14.321Z,9.00
2018-03-25T19:13:47.913Z,8.94
2018-03-25T19:16:15.806Z,8.83
2018-03-25T19:18:43.257Z,8.77
2018-03-25T19:21:10.713Z,8.71
2018-03-25T19:23:44.239Z,8.59
2018-03-25T19:26:11.899Z,8.50
2018-03-25T19:28:39.374Z,8.53
2018-03-25T19:31:06.826Z,8.50
2018-03-25T19:33:34.348Z,8.41
2018-03-25T19:36:02.113Z,8.40
2018-03-25T19:38:29.550Z,8.44
2018-03-25T19:40:57.010Z,8.62
2018-03-25T19:43:24.449Z,8.70
2018-03-25T19:45:51.890Z,8.77
2018-03-25T19:48:19.341Z,8.64
2018-03-25T19:50:46.797Z,8.51
2018-03-25T19:53:14.260Z,8.41
2018-03-25T19:55:41.713Z,8.47
2018-03-25T19:58:09.201Z,8.50
2018-03-25T20:00:36.644Z,8.59
2018-03-25T20:03:04.150Z,8.61
2018-03-25T20:05:31.647Z,8.58
2018-03-25T20:07:59.114Z,8.60
2018-03-25T20:10:26.571Z,8.55
2018-03-25T20:12:54.011Z,8.52
2018-03-25T20:15:21.470Z,8.42
2018-03-25T20:17:48.915Z,8.38
2018-03-25T20:20:16.463Z,8.27
2018-03-25T20:22:43.950Z,8.20
2018-03-25T20:25:11.394Z,8.12
2018-03-25T20:27:38.855Z,8.01
2018-03-25T20:30:06.417Z,7.99
2018-03-25T20:32:33.874Z,8.00
2018-03-25T20:35:01.314Z,8.01
2018-03-25T20:37:28.760Z,8.04
2018-03-25T20:39:56.215Z,8.14
2018-03-25T20:42:23.677Z,8.26
2018-03-25T20:44:51.136Z,8.34
2018-03-25T20:47:18.589Z,8.41
2018-03-25T20:49:46.707Z,8.44
2018-03-25T20:52:15.613Z,8.48
2018-03-25T20:54:43.073Z,8.40
2018-03-25T20:57:10.548Z,8.33
2018-03-25T20:59:38.107Z,8.30
2018-03-25T21:02:05.730Z,8.25
2018-03-25T21:04:33.195Z,8.11
2018-03-25T21:07:00.906Z,7.93
2018-03-25T21:09:28.388Z,7.79
2018-03-25T21:11:55.835Z,7.65
2018-03-25T21:14:23.288Z,7.52
2018-03-25T21:16:50.747Z,7.42
2018-03-25T21:19:18.204Z,7.35
2018-03-25T21:21:45.694Z,7.27
2018-03-25T21:24:13.146Z,7.29
2018-03-25T21:26:40.594Z,7.29
2018-03-25T21:29:08.049Z,7.26
2018-03-25T21:31:35.541Z,7.16
2018-03-25T21:34:04.606Z,7.16
2018-03-25T21:36:32.048Z,7.20
2018-03-25T21:38:59.506Z,7.27
2018-03-25T21:41:26.975Z,7.32
2018-03-25T21:43:55.537Z,7.40
2018-03-25T21:46:23.001Z,7.54
2018-03-25T21:48:50.446Z,7.47
2018-03-25T21:51:17.904Z,7.36
2018-03-25T21:53:46.760Z,7.23
2018-03-25T21:56:14.639Z,7.08
2018-03-25T21:58:42.082Z,6.96
2018-03-25T22:01:09.713Z,6.84
2018-03-25T22:03:37.172Z,6.71
2018-03-25T22:06:04.623Z,6.59
2018-03-25T22:08:32.076Z,6.45
2018-03-25T22:10:59.573Z,6.42
2018-03-25T22:13:27.231Z,6.30
2018-03-25T22:15:56.668Z,6.23
2018-03-25T22:18:30.844Z,6.18
2018-03-25T22:20:58.313Z,6.18
2018-03-25T22:23:25.774Z,6.10
2018-03-25T22:25:53.238Z,6.09
2018-03-25T22:28:20.880Z,6.04
2018-03-25T22:30:48.345Z,5.88
2018-03-25T22:33:15.801Z,5.80
2018-03-25T22:35:43.370Z,5.66
2018-03-25T22:38:10.838Z,5.56
2018-03-25T22:40:38.361Z,5.56
2018-03-25T22:43:05.819Z,5.51
2018-03-25T22:45:33.280Z,5.59
2018-03-25T22:48:00.720Z,5.57
2018-03-25T22:50:28.184Z,5.48
2018-03-25T22:52:55.659Z,5.38
2018-03-25T22:55:24.266Z,5.40
2018-03-25T22:57:55.029Z,5.44
2018-03-25T23:00:22.495Z,5.33
2018-03-25T23:02:50.307Z,5.25
2018-03-25T23:05:17.757Z,5.24
2018-03-25T23:07:45.204Z,5.21
2018-03-25T23:10:12.689Z,5.13
2018-03-25T23:12:40.139Z,5.04
2018-03-25T23:15:07.599Z,5.12
2018-03-25T23:17:41.139Z,5.06
2018-03-25T23:20:08.646Z,5.05
2018-03-25T23:22:36.466Z,5.24
2018-03-25T23:25:04.109Z,5.23
2018-03-25T23:27:31.634Z,5.21
2018-03-25T23:29:59.075Z,5.17
2018-03-25T23:32:26.618Z,5.10
2018-03-25T23:34:54.087Z,5.13
2018-03-25T23:37:21.543Z,5.09
2018-03-25T23:39:49.624Z,5.14
2018-03-25T23:42:17.073Z,4.99
2018-03-25T23:44:44.520Z,4.94
2018-03-25T23:47:12.006Z,4.95
2018-03-25T23:49:39.464Z,4.82
2018-03-25T23:52:06.918Z,4.82
2018-03-25T23:54:34.383Z,4.84
2018-03-25T23:57:02.795Z,4.95
2018-03-25T23:59:30.395Z,5.05
